• Join FlightAware (Why Join?)
  • Login
  • US Flag 
10:28AM EDT


 

Airport Tracker/Info


-or-


 

Live Flight TrackerFlight Track Log ✈ ASQ546T ✈ 04-Jun-2013 ✈ KIAH - KORF

Flight Track Log - Related Links

Times and Time Zones

All times are in EDT time to prevent confusion due to time zone crossing. See the ASQ546T flight status page for this flight to view local times or setup timezone preferences in your user account.

Time Position Orientation Groundspeed Altitude Reporting Facility
EDT Latitude Longitude Course Direction KTS MPH feet Rate Location/Type
08:43PM 29.9617 -95.3436 131° Southeast 165 190 500  Level Houston Center
08:43PM 29.9450 -95.3214 131° Southeast 184 212 1,500 1,680 Climbing Houston Center
08:44PM 29.9375 -95.2819 102° East 190 219 2,600 1,560 Climbing Houston Center
08:44PM 29.9328 -95.2578 103° East 233 268 3,100 2,100 Climbing Houston Center
08:45PM 29.9225 -95.2042 102° East 240 276 4,800 2,400 Climbing Houston Center
08:45PM 29.9194 -95.1800 98° East 262 302 5,600 2,100 Climbing Houston Center
08:46PM 29.9169 -95.1203 93° East 256 295 7,000 2,040 Climbing Houston Center
08:46PM 29.9133 -95.0939 99° East 276 318 7,700 1,920 Climbing Houston Center
08:47PM 29.9114 -95.0314 92° East 271 312 9,000 1,920 Climbing Houston Center
08:47PM 29.9086 -94.9981 95° East 280 322 9,700 1,620 Climbing Houston Center
08:48PM 29.9058 -94.9381 93° East 285 328 10,700 960 Climbing Houston Center
08:49PM 29.8975 -94.8308 95° East 324 373 11,400 1,080 Climbing Houston Center
08:50PM 29.8897 -94.7158 94° East 356 410 13,000 1,380 Climbing Houston Center
08:51PM 29.8817 -94.6011 95° East 359 413 14,300 1,260 Climbing Houston Center
08:52PM 29.8739 -94.4822 94° East 369 425 15,600 1,260 Climbing Houston Center
08:53PM 29.8642 -94.3375 94° East 377 434 17,000 1,080 Climbing Houston Center
08:54PM 29.8794 -94.2153 82° East 383 441 17,900 840 Climbing Houston Center
08:55PM 29.9017 -94.0828 79° East 394 453 18,800 1,200 Climbing Houston Center
08:56PM 29.9222 -93.9575 79° East 400 460 20,400 1,380 Climbing Houston Center
08:57PM 29.9422 -93.8361 79° East 390 449 21,700 1,260 Climbing Houston Center
08:58PM 29.9625 -93.7122 79° East 393 452 23,000 1,440 Climbing Houston Center
08:59PM 29.9819 -93.5919 79° East 389 448 24,700 1,440 Climbing Houston Center
09:00PM 30.0014 -93.4731 79° East 383 441 26,000 1,500 Climbing Houston Center
09:01PM 30.0353 -93.3336 74° East 382 440 27,800 1,560 Climbing Houston Center
09:02PM 30.0633 -93.2192 74° East 378 435 29,300 1,260 Climbing Houston Center
09:03PM 30.0911 -93.1039 74° East 377 434 30,400 1,020 Climbing Houston Center
09:04PM 30.1203 -92.9869 74° East 382 440 31,400 960 Climbing Houston Center
09:05PM 30.1497 -92.8681 74° East 385 443 32,400 960 Climbing Houston Center
09:06PM 30.1789 -92.7478 74° East 389 448 33,400 960 Climbing Houston Center
09:08PM 30.2081 -92.6278 74° East 390 449 34,400 780 Climbing Houston Center
09:09PM 30.2422 -92.4836 75° East 391 450 35,000 240 Climbing Houston Center
09:10PM 30.2725 -92.3539 75° East 416 479 35,000  Level Houston Center
09:11PM 30.3003 -92.2364 75° East 432 497 35,000  Level Houston Center
09:12PM 30.3403 -92.0667 75° East 456 525 35,000  Level Houston Center
09:13PM 30.3753 -91.9206 74° East 470 541 35,000  Level Houston Center
09:14PM 30.4106 -91.7703 75° East 482 555 35,000  Level Houston Center
09:15PM 30.4414 -91.6372 75° East 487 560 35,000  Level Houston Center
09:16PM 30.4800 -91.4675 75° East 489 563 35,000  Level Houston Center
09:17PM 30.5186 -91.3033 75° East 488 562 35,000  Level Houston Center
09:18PM 30.5544 -91.1508 75° East 488 562 35,000  Level Houston Center
09:19PM 30.5883 -90.9983 75° East 489 563 35,000  Level Houston Center
09:20PM 30.6233 -90.8450 75° East 491 565 35,000  Level Houston Center
09:21PM 30.6567 -90.6917 76° East 490 564 35,000  Level Houston Center
09:22PM 30.6903 -90.5389 76° East 489 563 35,000  Level Houston Center
09:23PM 30.7244 -90.3856 75° East 488 562 35,000  Level Houston Center
09:24PM 30.7581 -90.2331 76° East 486 559 35,000  Level Houston Center
09:25PM 30.7911 -90.0831 76° East 479 551 35,000  Level Houston Center
09:26PM 30.8239 -89.9322 76° East 477 549 35,000  Level Houston Center
09:27PM 30.8625 -89.7525 76° East 473 544 35,000  Level Houston Center
09:28PM 30.8947 -89.6036 76° East 473 544 35,000  Level Houston Center
09:29PM 30.9264 -89.4542 76° East 474 545 35,000  Level Houston Center
09:30PM 30.9575 -89.3033 76° East 477 549 35,000  Level Houston Center
09:31PM 30.9883 -89.1519 77° East 480 552 35,000  Level Houston Center
09:32PM 31.0197 -89.0025 76° East 475 547 35,000  Level Houston Center
09:33PM 31.0467 -88.8667 77° East 476 548 35,000  Level Houston Center
09:34PM 31.0844 -88.6875 76° East 473 544 35,000  Level Houston Center
09:35PM 31.1125 -88.5528 76° East 475 547 35,000  Level Houston Center
09:36PM 31.1433 -88.4031 76° East 474 545 35,000  Level Houston Center
09:37PM 31.1764 -88.2544 75° East 475 547 35,000  Level Houston Center
09:38PM 31.2050 -88.1025 78° East 479 551 35,000  Level Houston Center
09:39PM 31.2389 -87.9278 77° East 470 541 35,000  Level Houston Center
09:40PM 31.2686 -87.7775 77° East 472 543 35,000  Level Houston Center
09:41PM 31.2986 -87.6272 77° East 474 545 35,000  Level Houston Center
09:42PM 31.3683 -87.4958 58° Northeast 481 554 35,000  Level Houston Center
09:43PM 31.4553 -87.3783 49° Northeast 480 552 35,000  Level Houston Center
09:44PM 31.5406 -87.2600 50° Northeast 478 550 35,000  Level Houston Center
09:45PM 31.6358 -87.1806 35° Northeast 472 543 35,000  Level Atlanta Center
09:46PM 31.7550 -87.0894 33° Northeast 472 543 35,000  Level Atlanta Center
09:47PM 31.8675 -87.0050 33° Northeast 467 537 35,000  Level Atlanta Center
09:48PM 31.9900 -86.9431 23° Northeast 467 537 35,000  Level Atlanta Center
09:49PM 32.1186 -86.8908 19° North 472 543 35,000  Level Atlanta Center
09:50PM 32.2408 -86.8408 19° North 477 549 35,000  Level Atlanta Center
09:51PM 32.3692 -86.7906 18° North 472 543 35,000  Level Atlanta Center
09:52PM 32.4664 -86.7369 25° Northeast 472 543 35,000  Level Atlanta Center
09:53PM 32.5756 -86.6072 45° Northeast 462 532 35,000  Level Atlanta Center
09:54PM 32.6369 -86.4661 63° Northeast 464 534 35,000  Level Atlanta Center
09:55PM 32.7003 -86.3244 62° Northeast 470 541 35,000  Level Atlanta Center
09:56PM 32.7569 -86.1853 64° Northeast 470 541 35,000  Level Atlanta Center
09:57PM 32.8200 -86.0433 62° Northeast 470 541 35,000  Level Atlanta Center
09:58PM 32.8806 -85.9014 63° Northeast 470 541 35,000  Level Atlanta Center
09:59PM 32.9411 -85.7639 62° Northeast 465 535 35,000  Level Atlanta Center
10:00PM 32.9906 -85.6436 64° Northeast 460 529 35,000  Level Atlanta Center
10:01PM 33.0486 -85.5058 63° Northeast 460 529 35,000  Level Atlanta Center
10:02PM 33.1067 -85.3731 62° Northeast 455 524 35,000  Level Atlanta Center
10:03PM 33.1664 -85.2350 63° Northeast 455 524 35,000  Level Atlanta Center
10:04PM 33.2242 -85.0967 63° Northeast 460 529 35,000  Level Atlanta Center
10:05PM 33.2817 -84.9583 64° Northeast 460 529 35,000  Level Atlanta Center
10:06PM 33.3389 -84.8197 64° Northeast 460 529 35,000  Level Atlanta Center
10:07PM 33.3939 -84.6808 65° Northeast 460 529 35,000  Level Atlanta Center
10:08PM 33.4531 -84.5417 63° Northeast 460 529 35,000  Level Atlanta Center
10:09PM 33.5078 -84.4025 65° Northeast 460 529 35,000  Level Atlanta Center
10:10PM 33.5667 -84.2608 63° Northeast 465 535 35,000  Level Atlanta Center
10:11PM 33.6231 -84.1236 64° Northeast 465 535 35,000  Level Atlanta Center
10:12PM 33.6814 -83.9839 63° Northeast 465 535 35,000  Level Atlanta Center
10:13PM 33.7378 -83.8414 65° Northeast 465 535 35,000  Level Atlanta Center
10:14PM 33.8000 -83.6889 64° Northeast 460 529 35,000  Level Atlanta Center
10:15PM 33.8558 -83.5486 64° Northeast 465 535 35,000  Level Atlanta Center
10:16PM 33.9158 -83.4081 63° Northeast 459 528 35,000  Level Atlanta Center
10:17PM 33.9650 -83.2622 68° East 464 534 35,000  Level Atlanta Center
10:18PM 34.0036 -83.1117 73° East 464 534 35,000  Level Atlanta Center
10:19PM 34.0442 -82.9633 72° East 469 540 35,000  Level Atlanta Center
10:20PM 34.0803 -82.8147 74° East 459 528 35,000  Level Atlanta Center
10:21PM 34.1206 -82.6636 72° East 464 534 35,000  Level Atlanta Center
10:22PM 34.1606 -82.5175 72° East 464 534 35,000  Level Atlanta Center
10:23PM 34.1981 -82.3661 73° East 464 534 35,000  Level Atlanta Center
10:24PM 34.2378 -82.2119 73° East 464 534 35,000  Level Atlanta Center
10:25PM 34.2939 -82.0725 64° Northeast 464 534 35,000  Level Atlanta Center
10:26PM 34.3606 -81.9375 59° Northeast 458 527 35,000  Level Atlanta Center
10:27PM 34.4292 -81.8000 59° Northeast 464 534 35,000  Level Atlanta Center
10:28PM 34.4956 -81.6672 59° Northeast 464 534 35,000  Level Atlanta Center
10:29PM 34.5639 -81.5289 59° Northeast 474 545 35,000  Level Atlanta Center
10:30PM 34.6319 -81.3931 59° Northeast 474 545 35,000  Level Atlanta Center
10:31PM 34.6997 -81.2519 60° Northeast 481 554 35,000  Level Atlanta Center
10:32PM 34.7675 -81.1158 59° Northeast 481 554 35,000  Level Atlanta Center
10:33PM 34.8331 -80.9794 60° Northeast 481 554 35,000  Level Atlanta Center
10:34PM 34.9025 -80.8375 59° Northeast 475 547 35,000  Level Atlanta Center
10:35PM 34.9678 -80.7033 59° Northeast 470 541 35,000  Level Atlanta Center
10:36PM 35.0289 -80.5739 60° Northeast 455 524 35,000  Level Atlanta Center
10:37PM 35.0917 -80.4419 60° Northeast 449 517 35,000  Level Atlanta Center
10:39PM 35.2303 -80.1536 59° Northeast 439 505 35,000  Level Washington Center
10:40PM 35.2956 -80.0250 58° Northeast 445 512 35,000  Level Washington Center
10:41PM 35.3569 -79.8883 61° Northeast 445 512 35,000  Level Washington Center
10:42PM 35.4200 -79.7592 59° Northeast 445 512 35,000  Level Washington Center
10:43PM 35.4808 -79.6297 60° Northeast 445 512 35,000  Level Washington Center
10:44PM 35.5436 -79.4978 60° Northeast 440 506 35,000  Level Washington Center
10:45PM 35.6083 -79.3628 59° Northeast 440 506 35,000 -300 Level Washington Center
10:46PM 35.6689 -79.2278 61° Northeast 440 506 34,500 -1,260 Descending Washington Center
10:47PM 35.7314 -79.0950 60° Northeast 440 506 32,600 -3,240 Descending Washington Center
10:48PM 35.7958 -78.9544 60° Northeast 451 519 28,000 -2,040 Descending Washington Center
10:49PM 35.8622 -78.8136 60° Northeast 462 532 28,600  Climbing Washington Center
10:50PM 35.8872 -78.6583 79° East 454 522 28,000 -660 Descending Washington Center
10:51PM 35.9036 -78.5050 82° East 454 522 27,300 -1,380 Descending Washington Center
10:52PM 35.9178 -78.3517 83° East 449 517 25,300 -1,800 Descending Washington Center
10:53PM 35.9311 -78.2214 83° East 441 507 23,700 -1,620 Descending Washington Center
10:54PM 35.9444 -78.0781 83° East 429 494 22,100 -1,320 Descending Washington Center
10:55PM 35.9578 -77.9400 83° East 417 480 21,100 -600 Descending Washington Center
10:56PM 35.9897 -77.8047 74° East 406 467 21,000 -60 Descending Washington Center
10:57PM 36.0481 -77.6858 59° Northeast 396 456 21,000  Level Washington Center
10:58PM 36.1064 -77.5664 59° Northeast 396 456 21,000 -600 Level Washington Center
10:59PM 36.1625 -77.4494 59° Northeast 396 456 19,900 -1,560 Descending Washington Center
11:00PM 36.2164 -77.3322 60° Northeast 396 456 17,900 -1,860 Descending Washington Center
11:01PM 36.2703 -77.2203 59° Northeast 396 456 16,200 -2,040 Descending Washington Center
11:02PM 36.3131 -77.1333 59° Northeast 365 420 14,500 -2,220 Descending Washington Center
11:02PM 36.3261 -77.0975 66° East 377 434 14,000 -1,980 Descending Washington Center
11:03PM 36.3625 -77.0236 59° Northeast 360 414 12,500 -2,040 Descending Washington Center
11:03PM 36.3775 -76.9928 59° Northeast 365 420 12,000 -1,500 Descending Washington Center
11:04PM 36.4158 -76.9239 55° Northeast 354 407 11,000 -1,020 Descending Washington Center
11:04PM 36.4328 -76.8956 53° Northeast 353 406 11,000  Level Washington Center
11:05PM 36.4731 -76.8267 54° Northeast 344 396 11,000 -120 Level Washington Center
11:05PM 36.4881 -76.8011 54° Northeast 346 398 10,900 -1,140 Descending Washington Center
11:06PM 36.5261 -76.7369 54° Northeast 289 333 9,900 -1,620 Descending Washington Center
11:07PM 36.5708 -76.6522 57° Northeast 288 331 8,100 -1,680 Descending Washington Center
11:08PM 36.6153 -76.5728 55° Northeast 285 328 6,500 -1,560 Descending Washington Center
11:09PM 36.6597 -76.4956 54° Northeast 270 311 5,000 -1,380 Descending Washington Center
11:10PM 36.6997 -76.4183 57° Northeast 260 299 3,800 -1,020 Descending Washington Center
11:11PM 36.7525 -76.3411 50° Northeast 257 296 2,800 -660 Descending Washington Center
11:12PM 36.7922 -76.3025 38° Northeast 211 243 2,500 -660 Descending Washington Center
11:13PM 36.8258 -76.2692 38° Northeast 131 151 1,600 -900 Descending Washington Center
11:14PM 36.8572 -76.2408 36° Northeast 130 150 800 -840 Descending Washington Center